createdAt,value
2022-12-28T00:00:47.441Z,82.87
2022-12-28T00:04:15.675Z,83.23
2022-12-28T00:08:08.518Z,83.34
2022-12-28T00:11:31.984Z,83.08
2022-12-28T00:15:10.567Z,82.84
2022-12-28T00:18:47.452Z,82.81
2022-12-28T00:22:44.278Z,82.43
2022-12-28T00:26:13.163Z,82.55
2022-12-28T00:30:07.919Z,82.62
2022-12-28T00:33:51.549Z,82.72
2022-12-28T00:37:34.605Z,83.03
2022-12-28T00:41:01.374Z,83.01
2022-12-28T00:44:39.620Z,82.97
2022-12-28T00:48:17.243Z,82.72
2022-12-28T00:51:55.941Z,82.63
2022-12-28T00:55:33.651Z,82.48
2022-12-28T00:59:10.641Z,82.18
2022-12-28T01:03:06.093Z,82.41
2022-12-28T01:06:51.141Z,82.38
2022-12-28T01:10:14.553Z,82.57
2022-12-28T01:13:54.305Z,82.84
2022-12-28T01:17:49.005Z,82.84
2022-12-28T01:21:34.546Z,82.48
2022-12-28T01:25:17.089Z,82.36
2022-12-28T01:28:41.239Z,82.10
2022-12-28T01:32:18.344Z,82.15
2022-12-28T01:36:24.158Z,81.96
2022-12-28T01:40:09.279Z,82.09
2022-12-28T01:43:54.732Z,82.34
2022-12-28T01:47:28.941Z,82.53
2022-12-28T01:50:59.399Z,82.34
2022-12-28T01:54:42.922Z,82.43
2022-12-28T01:58:25.121Z,82.28
2022-12-28T02:01:52.455Z,81.89
2022-12-28T02:05:36.874Z,81.81
2022-12-28T02:09:36.329Z,81.98
2022-12-28T02:13:00.558Z,82.17
2022-12-28T02:16:37.586Z,82.46
2022-12-28T02:20:18.042Z,82.74
2022-12-28T02:24:27.544Z,83.31
2022-12-28T02:28:26.689Z,82.92
2022-12-28T02:32:20.710Z,83.05
2022-12-28T02:36:00.111Z,82.89
2022-12-28T02:39:32.228Z,82.77
2022-12-28T02:43:03.688Z,82.66
2022-12-28T02:46:58.602Z,82.66
2022-12-28T02:50:30.965Z,82.76
2022-12-28T02:54:53.590Z,82.65
2022-12-28T02:59:09.705Z,82.98
2022-12-28T03:03:15.671Z,83.26
2022-12-28T03:07:11.268Z,83.39
2022-12-28T03:11:04.699Z,83.27
2022-12-28T03:14:53.338Z,83.12
2022-12-28T03:18:39.543Z,83.03
2022-12-28T03:22:22.678Z,83.05
2022-12-28T03:26:06.175Z,83.31
2022-12-28T03:30:01.242Z,83.51
2022-12-28T03:33:25.285Z,83.81
2022-12-28T03:37:33.443Z,84.08
2022-12-28T03:41:16.875Z,83.83
2022-12-28T03:44:55.508Z,83.88
2022-12-28T03:48:40.584Z,83.73
2022-12-28T03:52:23.610Z,83.33
2022-12-28T03:55:46.962Z,83.10
2022-12-28T03:59:43.693Z,83.34
2022-12-28T04:03:26.534Z,83.25
2022-12-28T04:06:49.650Z,83.24
2022-12-28T04:10:27.358Z,83.30
2022-12-28T04:14:24.006Z,83.66
2022-12-28T04:18:06.826Z,84.06
2022-12-28T04:21:30.291Z,84.40
2022-12-28T04:25:08.394Z,84.28
2022-12-28T04:29:04.504Z,84.26
2022-12-28T04:32:38.093Z,84.15
2022-12-28T04:36:34.703Z,83.86
2022-12-28T04:40:18.217Z,83.80
2022-12-28T04:43:42.047Z,83.80
2022-12-28T04:47:38.290Z,83.90
2022-12-28T04:51:25.912Z,83.64
2022-12-28T04:54:50.511Z,83.95
2022-12-28T04:58:47.301Z,84.10
2022-12-28T05:02:11.010Z,84.45
2022-12-28T05:06:12.124Z,84.61
2022-12-28T05:09:35.872Z,84.67
2022-12-28T05:13:33.354Z,84.67
2022-12-28T05:16:56.746Z,84.69
2022-12-28T05:20:35.151Z,84.60
2022-12-28T05:24:12.396Z,84.58
2022-12-28T05:27:50.116Z,84.47
2022-12-28T05:31:28.188Z,84.40
2022-12-28T05:35:05.966Z,84.30
2022-12-28T05:38:43.252Z,84.25
2022-12-28T05:42:20.726Z,84.34
2022-12-28T05:46:04.226Z,84.49
2022-12-28T05:49:35.655Z,84.64
2022-12-28T05:53:13.543Z,85.27
2022-12-28T05:56:52.294Z,85.36
2022-12-28T06:00:28.747Z,85.54
2022-12-28T06:04:11.937Z,85.41
2022-12-28T06:08:03.278Z,85.43
2022-12-28T06:11:46.017Z,85.56
2022-12-28T06:15:10.188Z,85.26
2022-12-28T06:19:09.407Z,85.23
2022-12-28T06:22:32.973Z,85.15
2022-12-28T06:26:13.166Z,85.10
2022-12-28T06:29:48.285Z,85.22
2022-12-28T06:33:26.308Z,85.42
2022-12-28T06:37:04.361Z,85.60
2022-12-28T06:41:11.582Z,85.57
2022-12-28T06:44:25.464Z,85.92
2022-12-28T06:48:22.682Z,85.85
2022-12-28T06:51:46.189Z,85.78
2022-12-28T06:55:24.035Z,85.68
2022-12-28T06:59:04.007Z,85.74
2022-12-28T07:02:58.163Z,85.61
2022-12-28T07:06:42.610Z,85.78
2022-12-28T07:10:06.518Z,85.68
2022-12-28T07:13:44.623Z,85.82
2022-12-28T07:17:21.520Z,86.26
2022-12-28T07:21:01.825Z,86.56
2022-12-28T07:24:36.804Z,86.90
2022-12-28T07:28:14.424Z,87.11
2022-12-28T07:31:52.060Z,87.24
2022-12-28T07:35:29.698Z,87.17
2022-12-28T07:39:07.383Z,87.22
2022-12-28T07:43:04.099Z,87.19
2022-12-28T07:46:46.127Z,87.07
2022-12-28T07:50:32.877Z,87.18
2022-12-28T07:54:00.940Z,87.32
2022-12-28T07:57:57.593Z,87.40
2022-12-28T08:01:23.098Z,87.37
2022-12-28T08:04:58.504Z,87.43
2022-12-28T08:08:38.004Z,87.28
2022-12-28T08:12:13.913Z,87.10
2022-12-28T08:16:15.267Z,86.99
2022-12-28T08:19:38.428Z,87.02
2022-12-28T08:23:16.073Z,87.27
2022-12-28T08:27:12.625Z,87.22
2022-12-28T08:30:54.971Z,87.27
2022-12-28T08:34:37.453Z,86.95
2022-12-28T08:38:03.900Z,86.77
2022-12-28T08:41:38.573Z,86.54
2022-12-28T08:45:16.331Z,86.51
2022-12-28T08:48:55.756Z,86.73
2022-12-28T08:52:31.735Z,86.69
2022-12-28T08:56:10.874Z,86.80
2022-12-28T09:00:06.845Z,86.78
2022-12-28T09:03:54.700Z,86.57
2022-12-28T09:07:18.484Z,86.40
2022-12-28T09:11:15.218Z,86.35
2022-12-28T09:14:57.821Z,86.37
2022-12-28T09:18:21.278Z,86.64
2022-12-28T09:21:59.099Z,86.67
2022-12-28T09:25:36.958Z,86.50
2022-12-28T09:29:33.372Z,86.30
2022-12-28T09:33:50.827Z,86.10
2022-12-28T09:37:17.996Z,85.94
2022-12-28T09:40:55.618Z,86.19
2022-12-28T09:45:10.902Z,86.29
2022-12-28T09:48:36.291Z,86.14
2022-12-28T09:52:14.969Z,85.88
2022-12-28T09:56:26.334Z,85.83
2022-12-28T10:00:17.171Z,85.71
2022-12-28T10:04:01.538Z,85.83
2022-12-28T10:07:26.212Z,85.88
2022-12-28T10:11:05.120Z,86.04
2022-12-28T10:14:41.409Z,85.99
2022-12-28T10:18:39.569Z,85.82
2022-12-28T10:22:20.839Z,85.39
2022-12-28T10:25:46.932Z,85.51
2022-12-28T10:29:43.880Z,85.33
2022-12-28T10:33:15.953Z,84.89
2022-12-28T10:36:45.391Z,84.90
2022-12-28T10:40:27.670Z,85.02
2022-12-28T10:48:14.729Z,84.86
2022-12-28T10:52:17.046Z,84.57
2022-12-28T10:55:42.417Z,84.41
2022-12-28T10:59:28.565Z,84.36
2022-12-28T11:02:57.843Z,84.09
2022-12-28T11:07:01.984Z,84.03
2022-12-28T11:10:44.481Z,84.53
2022-12-28T11:14:29.309Z,83.95
2022-12-28T11:18:12.014Z,83.59
2022-12-28T11:21:56.318Z,83.29
2022-12-28T11:25:26.445Z,83.48
2022-12-28T11:28:57.883Z,83.58
2022-12-28T11:32:52.702Z,83.59
2022-12-28T11:36:39.814Z,83.23
2022-12-28T11:40:03.272Z,82.82
2022-12-28T11:43:49.378Z,82.87
2022-12-28T11:47:33.360Z,82.59
2022-12-28T11:51:04.607Z,82.74
2022-12-28T11:54:38.592Z,82.62
2022-12-28T11:58:31.548Z,82.47
2022-12-28T12:02:28.110Z,82.40
2022-12-28T12:06:11.595Z,81.90
2022-12-28T12:09:38.630Z,81.93
2022-12-28T12:13:25.124Z,82.24
2022-12-28T12:17:41.200Z,82.15
2022-12-28T12:21:29.494Z,82.29
2022-12-28T12:25:15.354Z,82.25
2022-12-28T12:28:46.994Z,81.66
2022-12-28T12:33:02.858Z,82.14
2022-12-28T12:37:15.179Z,81.64
2022-12-28T12:41:42.764Z,80.93
2022-12-28T12:45:23.916Z,81.42
2022-12-28T12:49:18.059Z,81.50
2022-12-28T12:52:54.931Z,80.83
2022-12-28T12:56:58.544Z,80.50
2022-12-28T13:01:00.403Z,79.94
2022-12-28T13:04:40.034Z,79.39
2022-12-28T13:08:31.736Z,79.79
2022-12-28T13:11:56.827Z,80.01
2022-12-28T13:15:55.660Z,80.38
2022-12-28T13:19:23.355Z,80.30
2022-12-28T13:22:57.083Z,79.77
2022-12-28T13:26:55.270Z,78.68
2022-12-28T13:30:37.958Z,77.14
2022-12-28T13:34:05.695Z,76.59
2022-12-28T13:37:39.789Z,76.89
2022-12-28T13:41:37.303Z,76.11
2022-12-28T13:45:03.983Z,76.04
2022-12-28T13:48:58.866Z,75.28
2022-12-28T13:52:55.760Z,73.89
2022-12-28T13:56:21.406Z,72.55
2022-12-28T13:59:58.246Z,72.62
2022-12-28T14:03:41.373Z,72.44
2022-12-28T14:07:15.991Z,72.75
2022-12-28T14:10:51.577Z,71.55
2022-12-28T14:14:29.222Z,72.30
2022-12-28T14:18:25.443Z,72.51
2022-12-28T14:22:30.782Z,72.71
2022-12-28T14:26:21.674Z,72.61
2022-12-28T14:30:07.798Z,72.50
2022-12-28T14:33:36.408Z,72.47
2022-12-28T14:37:38.140Z,72.50
2022-12-28T14:41:04.813Z,72.54
2022-12-28T14:45:21.582Z,72.83
2022-12-28T14:48:46.298Z,72.87
2022-12-28T14:52:47.476Z,72.86
2022-12-28T14:56:18.899Z,73.16
2022-12-28T15:00:23.814Z,73.36
2022-12-28T15:04:06.232Z,73.43
2022-12-28T15:07:51.177Z,73.20
2022-12-28T15:11:33.339Z,73.28
2022-12-28T15:15:18.212Z,73.82
2022-12-28T15:18:45.032Z,73.85
2022-12-28T15:22:19.757Z,73.66
2022-12-28T15:25:57.038Z,73.37
2022-12-28T15:30:05.319Z,73.64
2022-12-28T15:33:29.641Z,73.50
2022-12-28T15:37:26.184Z,73.80
2022-12-28T15:41:28.625Z,74.15
2022-12-28T15:44:53.972Z,74.21
2022-12-28T15:48:31.400Z,73.97
2022-12-28T15:52:26.729Z,74.18
2022-12-28T15:56:00.529Z,74.41
2022-12-28T15:59:47.161Z,74.59
2022-12-28T16:03:29.532Z,74.82
2022-12-28T16:06:53.179Z,74.76
2022-12-28T16:10:30.710Z,74.58
2022-12-28T16:14:27.558Z,74.78
2022-12-28T16:17:57.267Z,74.79
2022-12-28T16:21:30.386Z,75.00
2022-12-28T16:25:07.792Z,75.19
2022-12-28T16:29:05.985Z,75.24
2022-12-28T16:32:48.513Z,75.10
2022-12-28T16:36:32.531Z,74.89
2022-12-28T16:39:58.801Z,74.78
2022-12-28T16:43:34.332Z,75.03
2022-12-28T16:47:11.883Z,75.26
2022-12-28T16:51:09.004Z,75.47
2022-12-28T16:54:33.315Z,75.60
2022-12-28T16:58:11.113Z,75.12
2022-12-28T17:01:49.202Z,75.06
2022-12-28T17:05:48.768Z,74.97
2022-12-28T17:09:15.035Z,75.38
2022-12-28T17:13:09.568Z,75.60
2022-12-28T17:16:34.416Z,75.49
2022-12-28T17:20:32.211Z,75.50
2022-12-28T17:23:56.725Z,75.40
2022-12-28T17:27:53.639Z,75.45
2022-12-28T17:31:36.229Z,75.46
2022-12-28T17:35:19.538Z,75.62
2022-12-28T17:38:43.595Z,76.02
2022-12-28T17:42:40.335Z,76.18
2022-12-28T17:46:06.312Z,76.12
2022-12-28T17:49:42.407Z,76.01
2022-12-28T17:53:19.633Z,76.08
2022-12-28T17:57:16.886Z,76.01
2022-12-28T18:00:59.714Z,76.19
2022-12-28T18:04:42.266Z,76.43
2022-12-28T18:08:25.152Z,76.70
2022-12-28T18:12:08.615Z,76.71
2022-12-28T18:15:54.325Z,76.55
2022-12-28T18:19:18.409Z,76.43
2022-12-28T18:22:56.177Z,76.28
2022-12-28T18:26:33.701Z,76.37
2022-12-28T18:30:11.480Z,76.55
2022-12-28T18:33:49.348Z,76.96
2022-12-28T18:37:27.034Z,76.78
2022-12-28T18:41:05.072Z,76.54
2022-12-28T18:44:42.333Z,76.46
2022-12-28T18:48:20.312Z,76.08
2022-12-28T18:51:57.670Z,75.69
2022-12-28T18:55:35.195Z,75.65
2022-12-28T18:59:15.523Z,75.62
2022-12-28T19:03:09.487Z,75.71
2022-12-28T19:06:52.678Z,75.59
2022-12-28T19:10:47.142Z,75.61
2022-12-28T19:14:13.279Z,75.04
2022-12-28T19:17:48.514Z,75.24
2022-12-28T19:21:29.600Z,74.98
2022-12-28T19:25:22.732Z,74.79
2022-12-28T19:28:46.006Z,74.78
2022-12-28T19:32:23.865Z,75.33
2022-12-28T19:36:01.590Z,75.59
2022-12-28T19:39:39.266Z,75.34
2022-12-28T19:43:36.119Z,75.16
2022-12-28T19:47:00.408Z,74.92
2022-12-28T19:50:38.527Z,74.98
2022-12-28T19:54:14.997Z,75.01
2022-12-28T19:57:52.490Z,74.99
2022-12-28T20:01:51.756Z,75.23
2022-12-28T20:05:40.143Z,75.59
2022-12-28T20:09:03.728Z,75.66
2022-12-28T20:13:03.220Z,75.74
2022-12-28T20:16:45.857Z,75.72
2022-12-28T20:20:36.099Z,75.70
2022-12-28T20:24:11.608Z,75.58
2022-12-28T20:28:06.407Z,75.58
2022-12-28T20:31:31.069Z,75.66
2022-12-28T20:35:07.581Z,75.76
2022-12-28T20:39:04.073Z,75.84
2022-12-28T20:43:05.369Z,76.00
2022-12-28T20:46:30.025Z,76.18
2022-12-28T20:50:07.220Z,76.59
2022-12-28T20:54:03.479Z,76.62
2022-12-28T20:57:45.717Z,76.71
2022-12-28T21:01:28.087Z,76.68
2022-12-28T21:05:12.100Z,76.69
2022-12-28T21:08:54.682Z,76.69
2022-12-28T21:12:18.297Z,76.50
2022-12-28T21:15:56.332Z,76.46
2022-12-28T21:19:33.782Z,76.40
2022-12-28T21:23:11.330Z,76.43
2022-12-28T21:27:07.919Z,76.40
2022-12-28T21:30:56.090Z,76.48
2022-12-28T21:34:19.629Z,76.58
2022-12-28T21:38:16.155Z,77.05
2022-12-28T21:41:58.525Z,77.30
2022-12-28T21:45:41.231Z,77.78
2022-12-28T21:49:08.560Z,77.69
2022-12-28T21:52:43.147Z,77.76
2022-12-28T21:56:20.122Z,77.65
2022-12-28T21:59:59.565Z,77.18
2022-12-28T22:03:54.360Z,77.16
2022-12-28T22:07:40.990Z,77.24
2022-12-28T22:11:42.475Z,77.19
2022-12-28T22:15:44.542Z,77.07
2022-12-28T22:19:08.319Z,77.48
2022-12-28T22:23:06.825Z,77.95
2022-12-28T22:26:49.222Z,78.32
2022-12-28T22:30:13.530Z,78.41
2022-12-28T22:34:11.153Z,78.69
2022-12-28T22:37:35.739Z,78.52
2022-12-28T22:41:12.969Z,78.44
2022-12-28T22:44:50.079Z,78.57
2022-12-28T22:48:27.744Z,78.02
2022-12-28T22:52:08.706Z,78.03
2022-12-28T22:55:42.944Z,78.07
2022-12-28T22:59:39.737Z,78.01
2022-12-28T23:03:22.045Z,78.10
2022-12-28T23:06:45.649Z,77.99
2022-12-28T23:10:23.250Z,78.06
2022-12-28T23:14:20.563Z,78.38
2022-12-28T23:17:50.477Z,78.70
2022-12-28T23:22:00.026Z,79.24
2022-12-28T23:25:44.226Z,79.52
2022-12-28T23:29:09.590Z,79.34
2022-12-28T23:32:49.364Z,79.09
2022-12-28T23:36:24.901Z,78.83
2022-12-28T23:40:03.540Z,78.77
2022-12-28T23:43:40.194Z,78.72
2022-12-28T23:47:19.442Z,78.65
2022-12-28T23:51:07.929Z,78.58
2022-12-28T23:54:33.410Z,78.50
2022-12-28T23:58:30.004Z,78.48
